Ouzinkie, AK (99644)

8:52 AM AKDT on September 17, 2014 (GMT -0800)
Kodiak | Change Station
CLOSE
Current Station
Airport
Location: Kodiak,
Elevation: 112 ft
Nearby Weather Stations

Elev 112 ft 57.75 °N, 152.49 °W | Updated 59 minutes ago

Scattered Clouds
Scattered Clouds
47 °F
Feels Like 47 °F
N
4
Wind Variable Wind from WNW

Today
High -- | Low -- °F
--% Chance of Precip.
Yesterday
High -- | Low -- °F
Precip. -- in
7:49 AM 8:26 PM
Waning Crescent, 34% visible
Pressure 29.17 in
Visibility 10.0 miles
Clouds Few 2300 ft
Scattered Clouds 4000 ft
Scattered Clouds 11000 ft
Dew Point 45 °F
Humidity 93%
Rainfall 0.36 in
Snow Depth 0 in , 0 in , 1 in
UV 0 out of 12
Pollen Not available.
Air Quality Not available.
Flu Activity Not available.
METAR PADQ 171553Z 29003KT 10SM FEW023 SCT040 SCT110 08/07 A2917 RMK AO2 SLP878 T00830072

More Conditions Fewer Conditions

Pressure 29.17 in
Visibility 10.0 miles
Clouds Few 2300 ft
Scattered Clouds 4000 ft
Scattered Clouds 11000 ft
Dew Point 45 °F
Humidity 93%
Rainfall 0.36 in
Snow Depth 0 in , 0 in , 1 in
UV 0 out of 12
Pollen Not available.
Air Quality Not available.
Flu Activity Not available.
METAR PADQ 171553Z 29003KT 10SM FEW023 SCT040 SCT110 08/07 A2917 RMK AO2 SLP878 T00830072

More Conditions Fewer Conditions

10-Day Weather Forecast

Almanac

Astronomy

Sep. 17, 2014 Rise Set
Actual Time 7:49 AM AKDT 8:26 PM AKDT
Civil Twilight 7:10 AM AKDT 9:05 PM AKDT
Nautical Twilight 6:23 AM AKDT 9:52 PM AKDT
Astronomical Twilight 5:31 AM AKDT 10:43 PM AKDT
Moon 1:05 AM AKDT 5:33 PM AKDT
Length of Visible Light 13h 55m
Length of Day
12h 37m
Tomorrow will be 4m 52s shorter.
Waning Crescent, 34% of the Moon is Illuminated
Today
Waning Crescent
Sep 24
New
Oct 1
First Quarter
Oct 8
Full
Oct 15
Last Quarter

Today's Extremes

State Highs State Lows

Community

WunderPhotos

Upload Photos

1,754,100 photos uploaded!

Nearby

Snow Depth

Station Depth Elevation
Long Lake 0 in 820 ft
Fort Yukon 0 in 430 ft
Grouse Creek Divide 1 in 700 ft
MF Bradley River 5 in 2300 ft
Munson Ridge 1 in 3100 ft

Earthquake Activity

City Distance Mag. Time & Date
No recent earthquake activity has been reported nearby.
Minimum magnitude displayed is 2.5.

Coastal Water Temperatures

Place Temperature
No Stations Reporting

Nearby Weather Stations